Redcliffe Ses, Queensland

8:28 PM AEST on November 01, 2014 (GMT +1000)
Mango Hill | Change Station
CLOSE
Current Station
Personal Weather Station
Location: Mango Hill, QUEENSLAND
Elevation: 62 ft
Nearby Weather Stations

Elev 62 ft 27.22 °S, 153.03 °E | Updated 22 seconds ago

Clear
Clear
75.6 °F
Feels Like 77 °F
N
2.0
Wind Variable Wind from NW
Gusts 2.5 mph

Today
High -- | Low -- °F
--% Chance of Precip.
Yesterday
High -- | Low -- °F
Precip. -- in
4:57 AM 6:05 PM
Waxing Gibbous, 65% visible
Pressure 29.80 in
Visibility -9999.0 miles
Clouds
Heat Index 77 °F
Dew Point 66 °F
Humidity 71%
Rainfall 0.00 in
Snow Depth Not available.
UV 0.0 out of 12
Pollen Not available.
Air Quality Not available.
Flu Activity Not available.
METAR YBBN 011000Z 36021KT CAVOK 25/19 Q1009 NOSIG

More Conditions Fewer Conditions

Pressure 29.80 in
Visibility -9999.0 miles
Clouds
Heat Index 77 °F
Dew Point 66 °F
Humidity 71%
Rainfall 0.00 in
Snow Depth Not available.
UV 0.0 out of 12
Pollen Not available.
Air Quality Not available.
Flu Activity Not available.
METAR YBBN 011000Z 36021KT CAVOK 25/19 Q1009 NOSIG

More Conditions Fewer Conditions

10-Day Weather Forecast

Almanac

Astronomy

Nov. 01, 2014 Rise Set
Actual Time
Civil Twilight
Nautical Twilight
Astronomical Twilight
Moon
Length of Visible Light
Length of Day
Tomorrow will be .
, % of the Moon is Illuminated

Today's Extremes

Country Highs Country Lows

Community

WunderPhotos

Upload Photos

1,766,874 photos uploaded!

WunderBlogs® & News

Nearby

Air Quality

  Air Quality AQ Index Pollutant
Not available.

Snow Depth

Station Depth Elevation

Earthquake Activity

City Distance Mag. Time & Date
Minimum magnitude displayed is 2.5.

Coastal Water Temperatures

Place Temperature

Nearby Weather Stations